createdAt,value
2019-04-19T00:00:42.550Z,44.70
2019-04-19T00:03:10.765Z,44.70
2019-04-19T00:06:13.655Z,45.40
2019-04-19T00:08:54.111Z,45.00
2019-04-19T00:11:17.726Z,45.10
2019-04-19T00:13:32.936Z,45.00
2019-04-19T00:16:00.537Z,44.60
2019-04-19T00:18:28.259Z,44.20
2019-04-19T00:21:13.803Z,44.30
2019-04-19T00:23:33.135Z,44.30
2019-04-19T00:25:53.620Z,45.10
2019-04-19T00:28:31.883Z,44.30
2019-04-19T00:30:56.829Z,44.20
2019-04-19T00:33:26.084Z,44.30
2019-04-19T00:35:47.447Z,44.20
2019-04-19T00:38:26.529Z,44.60
2019-04-19T00:41:11.486Z,44.30
2019-04-19T00:44:06.924Z,44.80
2019-04-19T00:46:38.322Z,44.20
2019-04-19T00:49:05.556Z,44.20
2019-04-19T00:51:39.922Z,44.40
2019-04-19T00:54:00.346Z,44.00
2019-04-19T00:56:32.713Z,44.00
2019-04-19T00:58:53.298Z,43.70
2019-04-19T01:01:21.522Z,43.70
2019-04-19T01:03:48.710Z,44.00
2019-04-19T01:06:18.287Z,42.90
2019-04-19T01:08:56.372Z,43.10
2019-04-19T01:11:23.389Z,43.00
2019-04-19T01:13:56.235Z,42.70
2019-04-19T01:16:21.207Z,43.00
2019-04-19T01:18:47.291Z,42.90
2019-04-19T01:21:06.981Z,43.20
2019-04-19T01:23:40.799Z,43.00
2019-04-19T01:26:05.824Z,43.10
2019-04-19T01:28:32.520Z,43.40
2019-04-19T01:31:02.970Z,43.70
2019-04-19T01:33:34.529Z,43.80
2019-04-19T01:36:02.072Z,45.00
2019-04-19T01:38:32.530Z,44.10
2019-04-19T01:41:13.300Z,44.30
2019-04-19T01:43:48.869Z,44.30
2019-04-19T01:46:32.092Z,44.40
2019-04-19T01:48:53.565Z,44.70
2019-04-19T01:51:42.540Z,45.00
2019-04-19T01:54:24.788Z,45.10
2019-04-19T01:56:47.251Z,45.20
2019-04-19T01:59:07.858Z,45.40
2019-04-19T02:01:35.980Z,45.90
2019-04-19T02:04:06.355Z,46.00
2019-04-19T02:06:37.864Z,46.20
2019-04-19T02:09:01.975Z,46.40
2019-04-19T02:11:50.480Z,46.60
2019-04-19T02:14:15.420Z,47.00
2019-04-19T02:16:38.646Z,47.20
2019-04-19T02:19:11.720Z,47.30
2019-04-19T02:21:38.996Z,47.30
2019-04-19T02:24:05.116Z,47.10
2019-04-19T02:26:32.350Z,47.10
2019-04-19T02:29:07.505Z,47.00
2019-04-19T02:31:58.081Z,47.10
2019-04-19T02:34:28.786Z,47.30
2019-04-19T02:37:05.190Z,47.60
2019-04-19T02:41:58.037Z,48.20
2019-04-19T02:44:18.192Z,47.90
2019-04-19T02:47:08.832Z,48.20
2019-04-19T02:49:24.060Z,48.50
2019-04-19T02:51:50.131Z,48.70
2019-04-19T02:54:22.676Z,48.80
2019-04-19T02:57:31.414Z,49.00
2019-04-19T02:59:59.131Z,49.20
2019-04-19T03:02:38.355Z,49.40
2019-04-19T03:05:04.403Z,49.60
2019-04-19T03:06:56.115Z,49.70
2019-04-19T03:09:24.231Z,50.10
2019-04-19T03:12:02.214Z,50.10
2019-04-19T03:14:35.513Z,50.00
2019-04-19T03:17:07.290Z,50.40
2019-04-19T03:19:27.699Z,50.40
2019-04-19T03:21:56.012Z,51.40
2019-04-19T03:24:25.228Z,50.70
2019-04-19T03:26:54.084Z,50.80
2019-04-19T03:29:22.291Z,50.80
2019-04-19T03:32:17.777Z,51.10
2019-04-19T03:34:48.245Z,51.50
2019-04-19T03:36:50.721Z,51.30
2019-04-19T03:39:49.001Z,51.20
2019-04-19T03:42:06.134Z,51.40
2019-04-19T03:44:30.618Z,51.60
2019-04-19T03:49:40.034Z,51.70
2019-04-19T03:54:28.259Z,51.80
2019-04-19T03:56:55.043Z,51.90
2019-04-19T03:59:09.397Z,52.30
2019-04-19T04:01:42.331Z,52.10
2019-04-19T04:04:11.788Z,52.30
2019-04-19T04:06:37.072Z,52.30
2019-04-19T04:09:08.308Z,52.30
2019-04-19T04:11:51.972Z,52.50
2019-04-19T04:14:25.673Z,52.80
2019-04-19T04:16:58.383Z,52.70
2019-04-19T04:19:27.247Z,52.80
2019-04-19T04:21:55.610Z,53.00
2019-04-19T04:24:29.130Z,53.10
2019-04-19T04:27:00.148Z,52.90
2019-04-19T04:29:27.833Z,53.00
2019-04-19T04:32:03.321Z,52.80
2019-04-19T04:34:29.346Z,52.90
2019-04-19T04:37:05.294Z,52.60
2019-04-19T04:39:16.075Z,52.80
2019-04-19T04:41:46.022Z,52.90
2019-04-19T04:44:29.530Z,52.80
2019-04-19T04:47:19.279Z,52.60
2019-04-19T04:49:59.412Z,52.40
2019-04-19T04:52:32.522Z,52.30
2019-04-19T04:55:01.002Z,52.00
2019-04-19T04:57:39.521Z,51.90
2019-04-19T04:59:59.237Z,51.80
2019-04-19T05:02:42.731Z,51.60
2019-04-19T05:05:11.367Z,51.40
2019-04-19T05:07:39.259Z,51.00
2019-04-19T05:10:12.419Z,50.80
2019-04-19T05:13:01.216Z,51.00
2019-04-19T05:15:01.471Z,50.80
2019-04-19T05:20:06.659Z,50.60
2019-04-19T05:22:28.447Z,50.30
2019-04-19T05:25:14.737Z,50.10
2019-04-19T05:27:34.555Z,50.00
2019-04-19T05:29:44.943Z,49.30
2019-04-19T05:32:16.703Z,49.20
2019-04-19T05:34:55.944Z,49.00
2019-04-19T05:37:21.258Z,48.60
2019-04-19T05:40:07.938Z,48.50
2019-04-19T05:42:46.977Z,48.30
2019-04-19T05:47:40.621Z,48.20
2019-04-19T05:50:21.554Z,47.80
2019-04-19T05:52:42.561Z,47.80
2019-04-19T05:54:53.818Z,47.60
2019-04-19T05:57:40.188Z,47.10
2019-04-19T05:59:56.851Z,46.70
2019-04-19T06:02:26.390Z,46.00
2019-04-19T06:05:10.475Z,45.90
2019-04-19T06:07:31.297Z,45.40
2019-04-19T06:09:43.292Z,45.00
2019-04-19T06:12:19.246Z,44.80
2019-04-19T06:15:05.184Z,44.00
2019-04-19T06:17:43.681Z,43.20
2019-04-19T06:20:13.939Z,42.00
2019-04-19T06:22:38.562Z,40.90
2019-04-19T06:25:12.441Z,40.70
2019-04-19T06:27:53.235Z,40.00
2019-04-19T06:30:10.090Z,39.20
2019-04-19T06:32:40.649Z,37.70
2019-04-19T06:35:02.540Z,36.80
2019-04-19T06:37:21.009Z,36.00
2019-04-19T06:39:43.723Z,34.90
2019-04-19T06:42:13.567Z,34.70
2019-04-19T06:45:00.591Z,34.90
2019-04-19T06:47:16.307Z,35.00
2019-04-19T06:49:37.697Z,34.80
2019-04-19T06:52:11.902Z,34.60
2019-04-19T06:54:37.369Z,33.20
2019-04-19T06:57:12.076Z,32.20
2019-04-19T06:59:50.397Z,31.40
2019-04-19T07:01:59.637Z,32.20
2019-04-19T07:04:27.663Z,31.50
2019-04-19T07:07:15.797Z,30.10
2019-04-19T07:10:04.587Z,29.10
2019-04-19T07:12:16.958Z,30.10
2019-04-19T07:14:25.835Z,30.10
2019-04-19T07:17:05.567Z,30.10
2019-04-19T07:19:41.007Z,28.40
2019-04-19T07:21:59.533Z,28.00
2019-04-19T07:24:39.282Z,28.00
2019-04-19T07:27:04.312Z,28.40
2019-04-19T07:29:12.753Z,27.80
2019-04-19T07:31:40.171Z,27.30
2019-04-19T07:34:27.058Z,27.20
2019-04-19T07:36:57.659Z,26.80
2019-04-19T07:39:25.581Z,27.00
2019-04-19T07:41:54.208Z,25.80
2019-04-19T07:44:38.671Z,25.90
2019-04-19T07:47:41.643Z,26.00
2019-04-19T07:50:08.351Z,25.40
2019-04-19T07:52:40.227Z,23.40
2019-04-19T07:55:02.258Z,22.70
2019-04-19T08:00:21.179Z,23.30
2019-04-19T08:02:49.617Z,23.90
2019-04-19T08:10:09.051Z,22.30
2019-04-19T08:12:46.207Z,22.70
2019-04-19T08:15:17.060Z,22.30
2019-04-19T08:17:47.206Z,21.00
2019-04-19T08:27:16.661Z,21.40
2019-04-19T08:29:47.247Z,21.10
2019-04-19T08:32:10.816Z,21.20
2019-04-19T08:34:40.278Z,21.20
2019-04-19T08:37:16.485Z,21.40
2019-04-19T08:39:49.018Z,21.00
2019-04-19T08:42:28.610Z,20.50
2019-04-19T08:44:46.096Z,20.30
2019-04-19T08:47:31.141Z,20.50
2019-04-19T08:50:04.109Z,19.60
2019-04-19T08:52:33.697Z,19.40
2019-04-19T08:55:20.546Z,19.30
2019-04-19T08:57:30.785Z,19.70
2019-04-19T09:00:25.609Z,19.80
2019-04-19T09:02:43.169Z,19.30
2019-04-19T09:05:14.506Z,19.00
2019-04-19T09:12:45.925Z,18.90
2019-04-19T09:15:10.825Z,18.40
2019-04-19T09:17:59.441Z,18.60
2019-04-19T09:22:36.808Z,18.00
2019-04-19T09:24:56.057Z,18.80
2019-04-19T09:27:39.565Z,19.20
2019-04-19T09:30:09.549Z,18.30
2019-04-19T09:32:20.612Z,17.50
2019-04-19T09:34:49.552Z,17.70
2019-04-19T09:37:18.346Z,17.40
2019-04-19T09:39:50.097Z,17.70
2019-04-19T09:42:16.867Z,16.90
2019-04-19T09:44:41.533Z,16.90
2019-04-19T09:47:05.576Z,17.40
2019-04-19T09:49:47.845Z,17.70
2019-04-19T09:52:27.863Z,17.80
2019-04-19T09:54:52.530Z,18.10
2019-04-19T09:57:16.455Z,17.80
2019-04-19T09:59:33.692Z,17.40
2019-04-19T10:02:00.650Z,16.90
2019-04-19T10:04:25.109Z,16.80
2019-04-19T10:06:53.388Z,17.00
2019-04-19T10:09:22.372Z,16.90
2019-04-19T10:11:48.744Z,16.10
2019-04-19T10:14:15.379Z,17.40
2019-04-19T10:17:05.463Z,16.30
2019-04-19T10:19:33.031Z,16.40
2019-04-19T10:22:06.830Z,16.70
2019-04-19T10:24:33.543Z,16.90
2019-04-19T10:27:09.093Z,16.90
2019-04-19T10:29:40.139Z,17.00
2019-04-19T10:32:15.073Z,17.10
2019-04-19T10:34:42.778Z,17.30
2019-04-19T10:37:10.820Z,16.10
2019-04-19T10:39:37.624Z,16.60
2019-04-19T10:42:06.199Z,16.80
2019-04-19T10:44:33.966Z,16.70
2019-04-19T10:47:01.060Z,16.50
2019-04-19T10:49:36.046Z,16.40
2019-04-19T10:52:07.396Z,16.70
2019-04-19T10:54:34.019Z,16.20
2019-04-19T10:57:08.217Z,16.40
2019-04-19T10:59:36.607Z,16.60
2019-04-19T11:02:04.135Z,16.30
2019-04-19T11:04:31.170Z,17.00
2019-04-19T11:06:59.837Z,16.90
2019-04-19T11:09:27.088Z,16.90
2019-04-19T11:11:55.255Z,16.50
2019-04-19T11:14:22.152Z,17.00
2019-04-19T11:16:49.364Z,16.30
2019-04-19T11:19:20.962Z,16.70
2019-04-19T11:21:45.551Z,16.60
2019-04-19T11:24:13.716Z,16.50
2019-04-19T11:26:41.109Z,16.50
2019-04-19T11:29:08.007Z,17.10
2019-04-19T11:31:49.904Z,16.70
2019-04-19T11:34:17.267Z,16.20
2019-04-19T11:36:44.136Z,16.40
2019-04-19T11:39:12.795Z,16.10
2019-04-19T11:41:39.560Z,16.60
2019-04-19T11:44:15.025Z,16.60
2019-04-19T11:46:35.822Z,16.60
2019-04-19T11:49:03.864Z,16.20
2019-04-19T11:51:32.014Z,16.60
2019-04-19T11:53:59.173Z,16.60
2019-04-19T11:56:50.632Z,16.30
2019-04-19T11:59:36.975Z,16.50
2019-04-19T12:02:04.009Z,15.90
2019-04-19T12:04:30.683Z,16.10
2019-04-19T12:06:58.572Z,16.40
2019-04-19T12:09:25.356Z,15.70
2019-04-19T12:11:51.955Z,16.10
2019-04-19T12:14:19.650Z,15.80
2019-04-19T12:16:47.379Z,16.80
2019-04-19T12:19:14.281Z,17.20
2019-04-19T12:21:41.294Z,17.30
2019-04-19T12:24:08.706Z,17.00
2019-04-19T12:26:35.694Z,16.80
2019-04-19T12:29:05.607Z,16.00
2019-04-19T12:31:31.684Z,16.40
2019-04-19T12:33:59.549Z,16.70
2019-04-19T12:36:26.351Z,16.30
2019-04-19T12:38:53.725Z,16.60
2019-04-19T12:41:21.696Z,16.90
2019-04-19T12:43:49.845Z,17.00
2019-04-19T12:46:16.982Z,17.00
2019-04-19T12:48:43.846Z,17.40
2019-04-19T12:51:12.118Z,17.10
2019-04-19T12:53:39.271Z,16.90
2019-04-19T12:56:06.354Z,16.90
2019-04-19T12:58:33.140Z,16.40
2019-04-19T13:01:28.429Z,17.00
2019-04-19T13:04:06.642Z,17.60
2019-04-19T13:06:35.768Z,16.90
2019-04-19T13:09:05.357Z,16.70
2019-04-19T13:11:32.856Z,16.70
2019-04-19T13:13:59.789Z,16.70
2019-04-19T13:16:26.660Z,16.70
2019-04-19T13:18:54.262Z,17.10
2019-04-19T13:21:21.975Z,17.60
2019-04-19T13:23:48.774Z,17.90
2019-04-19T13:26:15.505Z,17.10
2019-04-19T13:28:43.720Z,17.60
2019-04-19T13:31:12.773Z,17.50
2019-04-19T13:33:39.516Z,17.60
2019-04-19T13:36:11.123Z,17.50
2019-04-19T13:39:01.426Z,17.40
2019-04-19T13:41:54.712Z,17.90
2019-04-19T13:44:22.843Z,17.10
2019-04-19T13:46:50.758Z,17.00
2019-04-19T13:49:18.760Z,17.70
2019-04-19T13:51:45.611Z,17.30
2019-04-19T13:54:12.563Z,17.70
2019-04-19T13:56:40.593Z,17.60
2019-04-19T13:59:07.666Z,17.90
2019-04-19T14:01:34.535Z,17.30
2019-04-19T14:04:01.722Z,17.40
2019-04-19T14:06:28.721Z,17.40
2019-04-19T14:08:55.412Z,17.50
2019-04-19T14:11:22.030Z,17.30
2019-04-19T14:13:53.822Z,17.30
2019-04-19T14:16:18.695Z,17.00
2019-04-19T14:18:46.767Z,17.20
2019-04-19T14:21:14.810Z,17.50
2019-04-19T14:23:41.840Z,17.60
2019-04-19T14:26:09.636Z,17.30
2019-04-19T14:28:36.456Z,17.30
2019-04-19T14:31:04.980Z,17.30
2019-04-19T14:33:32.833Z,17.00
2019-04-19T14:35:59.859Z,17.40
2019-04-19T14:38:27.593Z,17.70
2019-04-19T14:40:55.435Z,17.50
2019-04-19T14:43:22.702Z,17.90
2019-04-19T14:45:50.696Z,17.10
2019-04-19T14:48:25.815Z,17.20
2019-04-19T14:50:52.981Z,17.20
2019-04-19T14:53:14.756Z,16.90
2019-04-19T14:55:41.444Z,17.10
2019-04-19T14:58:08.381Z,17.40
2019-04-19T15:00:35.209Z,17.70
2019-04-19T15:03:10.557Z,18.10
2019-04-19T15:05:39.649Z,18.50
2019-04-19T15:08:06.642Z,18.60
2019-04-19T15:10:33.544Z,18.50
2019-04-19T15:13:00.936Z,18.30
2019-04-19T15:15:29.102Z,18.30
2019-04-19T15:17:57.581Z,18.40
2019-04-19T15:20:24.759Z,18.10
2019-04-19T15:22:52.599Z,18.60
2019-04-19T15:25:21.673Z,18.80
2019-04-19T15:27:48.734Z,19.10
2019-04-19T15:30:17.009Z,19.00
2019-04-19T15:32:44.511Z,19.00
2019-04-19T15:35:14.260Z,19.00
2019-04-19T15:37:41.255Z,19.50
2019-04-19T15:40:09.820Z,19.80
2019-04-19T15:42:36.808Z,20.70
2019-04-19T15:45:05.018Z,20.80
2019-04-19T15:47:32.743Z,21.00
2019-04-19T15:49:59.976Z,21.50
2019-04-19T15:52:28.105Z,22.00
2019-04-19T15:54:56.234Z,22.50
2019-04-19T15:57:23.858Z,23.40
2019-04-19T15:59:51.813Z,23.00
2019-04-19T16:02:38.566Z,22.80
2019-04-19T16:05:26.423Z,23.60
2019-04-19T16:08:04.444Z,23.50
2019-04-19T16:10:36.870Z,23.80
2019-04-19T16:13:03.651Z,24.00
2019-04-19T16:15:30.328Z,24.20
2019-04-19T16:17:57.836Z,24.10
2019-04-19T16:20:25.201Z,24.20
2019-04-19T16:22:52.255Z,24.40
2019-04-19T16:25:19.134Z,24.20
2019-04-19T16:27:46.805Z,24.10
2019-04-19T16:30:14.811Z,24.20
2019-04-19T16:32:41.453Z,24.40
2019-04-19T16:35:09.888Z,24.50
2019-04-19T16:37:37.151Z,24.60
2019-04-19T16:40:10.301Z,24.70
2019-04-19T16:42:36.973Z,25.00
2019-04-19T16:45:05.958Z,24.60
2019-04-19T16:47:33.373Z,24.80
2019-04-19T16:50:00.633Z,24.90
2019-04-19T16:52:28.873Z,24.80
2019-04-19T16:54:58.775Z,25.00
2019-04-19T16:57:28.299Z,24.80
2019-04-19T16:59:52.760Z,24.80
2019-04-19T17:02:19.378Z,25.00
2019-04-19T17:04:46.079Z,24.70
2019-04-19T17:07:13.191Z,24.90
2019-04-19T17:09:42.691Z,24.90
2019-04-19T17:12:10.409Z,25.10
2019-04-19T17:14:37.174Z,24.80
2019-04-19T17:17:24.602Z,24.50
2019-04-19T17:19:55.612Z,24.70
2019-04-19T17:22:36.694Z,24.50
2019-04-19T17:25:05.293Z,24.60
2019-04-19T17:27:33.591Z,24.50
2019-04-19T17:30:02.093Z,24.50
2019-04-19T17:32:30.149Z,24.40
2019-04-19T17:34:58.036Z,24.20
2019-04-19T17:37:26.333Z,24.70
2019-04-19T17:39:53.094Z,24.60
2019-04-19T17:42:19.683Z,24.60
2019-04-19T17:44:47.322Z,24.60
2019-04-19T17:47:17.019Z,24.70
2019-04-19T17:49:45.363Z,25.10
2019-04-19T17:52:20.894Z,25.30
2019-04-19T17:54:55.857Z,25.60
2019-04-19T17:57:09.257Z,26.00
2019-04-19T17:59:36.373Z,26.00
2019-04-19T18:02:03.425Z,26.20
2019-04-19T18:04:30.597Z,26.60
2019-04-19T18:07:01.232Z,26.50
2019-04-19T18:09:26.400Z,26.50
2019-04-19T18:11:53.548Z,26.70
2019-04-19T18:14:20.375Z,26.90
2019-04-19T18:16:48.358Z,26.90
2019-04-19T18:19:23.276Z,27.70
2019-04-19T18:21:44.128Z,27.40
2019-04-19T18:24:20.089Z,26.80
2019-04-19T18:26:39.724Z,27.40
2019-04-19T18:29:07.675Z,26.30
2019-04-19T18:31:40.713Z,27.00
2019-04-19T18:34:09.626Z,27.30
2019-04-19T18:36:32.619Z,27.80
2019-04-19T18:39:00.264Z,27.60
2019-04-19T18:41:27.314Z,28.40
2019-04-19T18:44:04.650Z,28.00
2019-04-19T18:46:22.738Z,28.00
2019-04-19T18:48:49.619Z,28.50
2019-04-19T18:51:20.742Z,28.30
2019-04-19T18:53:58.247Z,28.60
2019-04-19T18:56:19.207Z,28.80
2019-04-19T18:58:43.998Z,29.20
2019-04-19T19:01:21.288Z,29.00
2019-04-19T19:03:43.122Z,29.00
2019-04-19T19:06:09.572Z,29.20
2019-04-19T19:08:47.283Z,29.30
2019-04-19T19:11:12.971Z,29.50
2019-04-19T19:13:36.146Z,29.40
2019-04-19T19:16:02.352Z,29.50
2019-04-19T19:18:35.076Z,30.30
2019-04-19T19:21:01.125Z,29.60
2019-04-19T19:23:43.198Z,29.80
2019-04-19T19:26:07.252Z,30.00
2019-04-19T19:28:24.926Z,29.80
2019-04-19T19:30:53.194Z,29.90
2019-04-19T19:33:23.821Z,30.40
2019-04-19T19:35:54.915Z,30.40
2019-04-19T19:38:25.497Z,31.00
2019-04-19T19:41:00.042Z,31.10
2019-04-19T19:43:34.062Z,31.30
2019-04-19T19:45:55.845Z,31.40
2019-04-19T19:48:28.546Z,31.40
2019-04-19T19:53:44.410Z,31.70
2019-04-19T19:56:07.341Z,31.30
2019-04-19T19:58:17.206Z,31.10
2019-04-19T20:00:56.729Z,30.70
2019-04-19T20:03:13.483Z,30.90
2019-04-19T20:05:36.472Z,30.40
2019-04-19T20:08:01.679Z,30.60
2019-04-19T20:10:36.107Z,30.30
2019-04-19T20:13:00.903Z,30.80
2019-04-19T20:15:28.917Z,30.20
2019-04-19T20:17:57.959Z,30.20
2019-04-19T20:20:30.940Z,31.00
2019-04-19T20:22:52.477Z,30.00
2019-04-19T20:25:32.474Z,29.30
2019-04-19T20:27:52.070Z,29.60
2019-04-19T20:30:17.430Z,29.60
2019-04-19T20:32:44.794Z,29.40
2019-04-19T20:35:17.615Z,28.80
2019-04-19T20:37:41.982Z,28.60
2019-04-19T20:40:15.602Z,28.80
2019-04-19T20:43:02.093Z,29.50
2019-04-19T20:45:16.547Z,29.20
2019-04-19T20:47:43.751Z,28.70
2019-04-19T20:50:17.336Z,28.30
2019-04-19T20:52:45.380Z,28.50
2019-04-19T20:55:25.097Z,28.50
2019-04-19T20:58:09.798Z,28.70
2019-04-19T21:00:35.027Z,29.70
2019-04-19T21:03:01.802Z,29.10
2019-04-19T21:05:34.711Z,29.90
2019-04-19T21:08:01.764Z,29.10
2019-04-19T21:10:25.796Z,29.50
2019-04-19T21:12:55.637Z,29.70
2019-04-19T21:15:28.087Z,29.60
2019-04-19T21:17:51.542Z,30.20
2019-04-19T21:20:23.930Z,30.00
2019-04-19T21:22:48.556Z,30.20
2019-04-19T21:25:19.923Z,30.80
2019-04-19T21:27:49.206Z,30.60
2019-04-19T21:30:14.707Z,31.00
2019-04-19T21:32:41.488Z,30.70
2019-04-19T21:35:12.240Z,31.60
2019-04-19T21:37:42.379Z,30.90
2019-04-19T21:40:06.297Z,31.10
2019-04-19T21:42:39.625Z,31.30
2019-04-19T21:45:03.519Z,31.70
2019-04-19T21:47:34.018Z,32.00
2019-04-19T21:50:01.201Z,32.70
2019-04-19T21:52:29.078Z,32.50
2019-04-19T21:55:10.360Z,32.10
2019-04-19T21:57:29.535Z,32.50
2019-04-19T21:59:54.235Z,33.10
2019-04-19T22:02:36.619Z,33.00
2019-04-19T22:04:57.410Z,33.30
2019-04-19T22:07:25.438Z,33.90
2019-04-19T22:09:58.499Z,33.90
2019-04-19T22:12:20.884Z,34.10
2019-04-19T22:14:48.582Z,34.40
2019-04-19T22:17:19.724Z,35.00
2019-04-19T22:19:44.175Z,35.10
2019-04-19T22:22:19.212Z,35.50
2019-04-19T22:24:41.043Z,35.70
2019-04-19T22:27:07.994Z,35.80
2019-04-19T22:29:35.701Z,36.30
2019-04-19T22:32:08.515Z,36.40
2019-04-19T22:34:32.646Z,36.60
2019-04-19T22:37:01.741Z,36.80
2019-04-19T22:39:28.100Z,37.00
2019-04-19T22:41:54.991Z,37.50
2019-04-19T22:44:22.830Z,37.30
2019-04-19T22:46:52.878Z,37.50
2019-04-19T22:49:19.897Z,38.40
2019-04-19T22:51:46.696Z,38.10
2019-04-19T22:54:14.819Z,38.50
2019-04-19T22:56:52.448Z,38.90
2019-04-19T22:59:16.151Z,39.10
2019-04-19T23:02:01.521Z,39.50
2019-04-19T23:04:26.565Z,40.00
2019-04-19T23:07:01.088Z,40.40
2019-04-19T23:09:23.171Z,40.10
2019-04-19T23:11:51.226Z,40.70
2019-04-19T23:14:41.458Z,40.90
2019-04-19T23:17:08.199Z,41.20
2019-04-19T23:19:39.252Z,41.60
2019-04-19T23:22:03.760Z,41.70
2019-04-19T23:24:31.211Z,42.10
2019-04-19T23:27:10.986Z,42.30
2019-04-19T23:29:30.756Z,42.70
2019-04-19T23:31:55.973Z,43.00
2019-04-19T23:34:25.186Z,43.00
2019-04-19T23:36:59.724Z,43.00
2019-04-19T23:39:21.202Z,43.00
2019-04-19T23:41:49.056Z,43.30
2019-04-19T23:44:19.494Z,42.70
2019-04-19T23:46:45.451Z,44.10
2019-04-19T23:49:14.568Z,43.80
2019-04-19T23:51:41.128Z,43.90
2019-04-19T23:54:15.104Z,44.20
2019-04-19T23:56:49.151Z,44.50
2019-04-19T23:59:12.882Z,44.60
